createdAt,value
2017-10-16T00:02:21.742Z,16.43
2017-10-16T00:04:49.976Z,12.60
2017-10-16T00:07:18.646Z,10.10
2017-10-16T00:09:46.889Z,14.53
2017-10-16T00:12:15.355Z,11.63
2017-10-16T00:14:43.635Z,14.13
2017-10-16T00:17:11.869Z,9.00
2017-10-16T00:19:40.538Z,12.33
2017-10-16T00:22:08.811Z,10.93
2017-10-16T00:24:37.084Z,9.00
2017-10-16T00:27:05.392Z,16.20
2017-10-16T00:29:34.042Z,11.80
2017-10-16T00:32:02.300Z,10.20
2017-10-16T00:34:32.496Z,13.23
2017-10-16T00:37:00.751Z,12.40
2017-10-16T00:39:29.023Z,12.30
2017-10-16T00:41:57.282Z,11.73
2017-10-16T00:44:25.521Z,9.27
2017-10-16T00:46:53.771Z,9.37
2017-10-16T00:49:22.017Z,11.60
2017-10-16T00:51:50.287Z,10.50
2017-10-16T00:54:20.511Z,9.87
2017-10-16T00:56:48.852Z,11.43
2017-10-16T00:59:17.121Z,11.00
2017-10-16T01:01:45.418Z,19.13
2017-10-16T01:04:13.655Z,12.50
2017-10-16T01:06:41.931Z,11.53
2017-10-16T01:09:10.188Z,10.80
2017-10-16T01:11:38.452Z,12.63
2017-10-16T01:14:07.142Z,13.70
2017-10-16T01:16:35.790Z,11.43
2017-10-16T01:19:04.047Z,10.97
2017-10-16T01:21:32.361Z,11.27
2017-10-16T01:24:00.621Z,11.83
2017-10-16T01:26:29.096Z,11.37
2017-10-16T01:28:57.381Z,10.00
2017-10-16T01:31:25.634Z,11.00
2017-10-16T01:33:53.880Z,13.47
2017-10-16T01:36:22.165Z,9.87
2017-10-16T01:38:50.506Z,11.30
2017-10-16T01:41:18.995Z,11.30
2017-10-16T01:43:47.331Z,14.63
2017-10-16T01:46:15.578Z,10.97
2017-10-16T01:48:43.889Z,11.07
2017-10-16T01:51:12.125Z,8.60
2017-10-16T01:53:40.395Z,10.60
2017-10-16T01:56:08.709Z,9.10
2017-10-16T01:58:36.953Z,9.23
2017-10-16T02:01:05.437Z,17.23
2017-10-16T02:03:33.700Z,10.40
2017-10-16T02:06:01.965Z,9.10
2017-10-16T02:08:30.245Z,9.60
2017-10-16T02:10:58.914Z,10.10
2017-10-16T02:13:27.554Z,10.80
2017-10-16T02:15:55.892Z,10.50
2017-10-16T02:18:24.165Z,8.97
2017-10-16T02:20:52.449Z,14.20
2017-10-16T02:23:21.140Z,10.60
2017-10-16T02:25:49.389Z,10.53
2017-10-16T02:28:17.644Z,11.30
2017-10-16T02:30:46.535Z,11.73
2017-10-16T02:33:14.825Z,11.67
2017-10-16T02:35:43.082Z,9.87
2017-10-16T02:38:11.445Z,11.30
2017-10-16T02:40:39.704Z,9.43
2017-10-16T02:43:07.987Z,11.83
2017-10-16T02:45:36.245Z,9.20
2017-10-16T02:48:04.518Z,11.13
2017-10-16T02:50:32.818Z,11.53
2017-10-16T02:53:01.077Z,11.73
2017-10-16T02:55:29.410Z,14.27
2017-10-16T02:57:57.746Z,10.90
2017-10-16T03:00:26.005Z,11.80
2017-10-16T03:02:54.277Z,13.10
2017-10-16T03:05:22.661Z,12.03
2017-10-16T03:07:50.937Z,11.97
2017-10-16T03:10:19.208Z,9.50
2017-10-16T03:12:47.661Z,10.40
2017-10-16T03:15:16.353Z,11.60
2017-10-16T03:17:44.658Z,9.67
2017-10-16T03:20:12.943Z,10.70
2017-10-16T03:22:41.230Z,12.83
2017-10-16T03:25:09.485Z,9.73
2017-10-16T03:27:38.428Z,11.63
2017-10-16T03:30:07.214Z,10.80
2017-10-16T03:32:35.666Z,12.27
2017-10-16T03:35:04.138Z,11.17
2017-10-16T03:37:33.084Z,13.60
2017-10-16T03:40:01.581Z,10.00
2017-10-16T03:42:30.288Z,12.10
2017-10-16T03:44:58.558Z,11.70
2017-10-16T03:47:26.818Z,15.67
2017-10-16T03:49:55.353Z,12.47
2017-10-16T03:52:23.632Z,13.90
2017-10-16T03:54:51.941Z,9.77
2017-10-16T03:57:20.173Z,12.70
2017-10-16T03:59:48.432Z,12.57
2017-10-16T04:02:16.710Z,13.90
2017-10-16T04:04:45.189Z,9.57
2017-10-16T04:07:18.864Z,9.43
2017-10-16T04:09:47.325Z,13.60
2017-10-16T04:12:16.685Z,14.47
2017-10-16T04:14:45.146Z,14.73
2017-10-16T04:17:13.422Z,17.43
2017-10-16T04:19:41.732Z,12.97
2017-10-16T04:22:09.973Z,13.27
2017-10-16T04:24:38.251Z,13.60
2017-10-16T04:27:06.665Z,13.33
2017-10-16T04:29:35.802Z,16.03
2017-10-16T04:32:04.478Z,13.60
2017-10-16T04:34:33.739Z,13.67
2017-10-16T04:37:02.742Z,12.97
2017-10-16T04:39:31.340Z,14.03
2017-10-16T04:42:00.013Z,11.20
2017-10-16T04:44:28.306Z,13.50
2017-10-16T04:46:56.565Z,14.20
2017-10-16T04:49:24.881Z,15.57
2017-10-16T04:51:53.682Z,12.30
2017-10-16T04:54:22.431Z,17.63
2017-10-16T04:56:50.685Z,16.57
2017-10-16T04:59:18.981Z,15.73
2017-10-16T05:01:47.237Z,14.77
2017-10-16T05:04:15.483Z,13.90
2017-10-16T05:06:43.756Z,14.50
2017-10-16T05:09:12.005Z,17.73
2017-10-16T05:11:40.930Z,12.30
2017-10-16T05:14:09.458Z,17.40
2017-10-16T05:16:37.710Z,16.00
2017-10-16T05:19:05.986Z,15.77
2017-10-16T05:21:34.295Z,14.10
2017-10-16T05:24:02.541Z,14.50
2017-10-16T05:26:30.817Z,14.80
2017-10-16T05:28:59.108Z,14.20
2017-10-16T05:31:27.372Z,18.17
2017-10-16T05:33:56.077Z,17.33
2017-10-16T05:36:24.972Z,13.70
2017-10-16T05:38:53.405Z,14.90
2017-10-16T05:41:21.677Z,15.37
2017-10-16T05:43:50.022Z,15.90
2017-10-16T05:46:18.887Z,21.97
2017-10-16T05:48:47.284Z,16.23
2017-10-16T05:51:18.021Z,14.10
2017-10-16T05:53:46.280Z,14.30
2017-10-16T05:56:14.546Z,17.63
2017-10-16T05:58:42.809Z,14.87
2017-10-16T06:01:11.057Z,15.97
2017-10-16T06:03:39.441Z,16.03
2017-10-16T06:06:07.709Z,16.30
2017-10-16T06:08:36.034Z,16.20
2017-10-16T06:11:04.735Z,15.87
2017-10-16T06:13:33.247Z,20.37
2017-10-16T06:16:01.567Z,15.60
2017-10-16T06:18:29.879Z,19.63
2017-10-16T06:20:58.264Z,14.73
2017-10-16T06:23:27.199Z,14.07
2017-10-16T06:25:55.485Z,21.97
2017-10-16T06:28:23.729Z,26.77
2017-10-16T06:30:51.993Z,21.60
2017-10-16T06:33:20.260Z,18.23
2017-10-16T06:35:48.516Z,20.53
2017-10-16T06:38:17.385Z,16.93
2017-10-16T06:40:45.693Z,21.13
2017-10-16T06:43:14.352Z,21.67
2017-10-16T06:45:42.633Z,30.60
2017-10-16T06:48:10.929Z,19.77
2017-10-16T06:50:39.236Z,23.53
2017-10-16T06:53:07.505Z,20.83
2017-10-16T06:55:35.780Z,19.90
2017-10-16T06:58:04.083Z,21.50
2017-10-16T07:00:32.341Z,20.43
2017-10-16T07:03:01.275Z,24.70
2017-10-16T07:05:29.567Z,19.70
2017-10-16T07:07:57.839Z,19.00
2017-10-16T07:10:26.153Z,21.73
2017-10-16T07:12:54.670Z,20.60
2017-10-16T07:15:23.164Z,25.00
2017-10-16T07:17:51.403Z,23.10
2017-10-16T07:20:20.471Z,29.13
2017-10-16T07:22:49.132Z,19.17
2017-10-16T07:25:17.478Z,17.60
2017-10-16T07:27:46.921Z,22.47
2017-10-16T07:30:16.778Z,23.37
2017-10-16T07:32:45.498Z,22.03
2017-10-16T07:35:13.816Z,26.77
2017-10-16T07:37:42.247Z,21.93
2017-10-16T07:40:11.942Z,20.80
2017-10-16T07:42:40.502Z,18.30
2017-10-16T07:45:08.941Z,22.63
2017-10-16T07:47:38.026Z,19.53
2017-10-16T07:50:06.276Z,20.90
2017-10-16T07:52:34.585Z,19.30
2017-10-16T07:55:02.856Z,22.50
2017-10-16T07:57:31.120Z,22.43
2017-10-16T07:59:59.372Z,20.00
2017-10-16T08:02:28.872Z,21.50
2017-10-16T08:04:57.291Z,19.23
2017-10-16T08:07:25.536Z,18.53
2017-10-16T08:09:53.789Z,17.87
2017-10-16T08:12:22.071Z,17.23
2017-10-16T08:14:50.344Z,16.33
2017-10-16T08:17:18.596Z,18.57
2017-10-16T08:19:47.360Z,16.37
2017-10-16T08:22:15.605Z,16.93
2017-10-16T08:24:43.885Z,14.60
2017-10-16T08:27:12.151Z,14.13
2017-10-16T08:29:40.402Z,13.90
2017-10-16T08:32:08.698Z,17.83
2017-10-16T08:34:36.953Z,15.13
2017-10-16T08:37:05.269Z,12.43
2017-10-16T08:39:33.544Z,21.57
2017-10-16T08:42:01.803Z,15.50
2017-10-16T08:44:30.053Z,16.27
2017-10-16T08:46:58.726Z,18.83
2017-10-16T08:49:26.986Z,11.00
2017-10-16T08:51:55.690Z,16.13
2017-10-16T08:54:24.421Z,12.10
2017-10-16T08:56:52.937Z,15.50
2017-10-16T08:59:21.220Z,17.30
2017-10-16T09:01:49.533Z,15.03
2017-10-16T09:04:18.017Z,12.43
2017-10-16T09:06:46.655Z,17.10
2017-10-16T09:09:14.898Z,14.10
2017-10-16T09:11:43.171Z,14.53
2017-10-16T09:14:11.437Z,12.97
2017-10-16T09:16:39.673Z,11.93
2017-10-16T09:19:07.975Z,11.83
2017-10-16T09:21:36.244Z,13.63
2017-10-16T09:24:04.874Z,12.43
2017-10-16T09:26:33.125Z,13.53
2017-10-16T09:29:01.417Z,11.37
2017-10-16T09:31:29.675Z,12.63
2017-10-16T09:33:57.943Z,15.70
2017-10-16T09:36:26.217Z,14.30
2017-10-16T09:38:54.491Z,14.57
2017-10-16T09:41:23.220Z,12.63
2017-10-16T09:43:51.483Z,14.47
2017-10-16T09:46:19.817Z,12.47
2017-10-16T09:48:48.204Z,15.00
2017-10-16T09:51:16.457Z,13.00
2017-10-16T09:53:45.117Z,10.37
2017-10-16T09:56:13.388Z,11.97
2017-10-16T09:58:41.635Z,13.43
2017-10-16T10:01:09.881Z,11.20
2017-10-16T10:03:38.428Z,14.00
2017-10-16T10:06:06.738Z,16.33
2017-10-16T10:08:35.413Z,11.87
2017-10-16T10:11:04.215Z,13.13
2017-10-16T10:13:33.457Z,18.07
2017-10-16T10:16:01.727Z,12.53
2017-10-16T10:21:19.298Z,17.73
2017-10-16T10:23:48.050Z,15.33
2017-10-16T10:26:16.338Z,13.60
2017-10-16T10:28:44.623Z,12.93
2017-10-16T10:31:12.886Z,10.97
2017-10-16T10:33:41.156Z,17.80
2017-10-16T10:36:09.440Z,13.60
2017-10-16T10:38:37.708Z,10.40
2017-10-16T10:41:05.984Z,11.67
2017-10-16T10:43:34.294Z,11.57
2017-10-16T10:46:02.574Z,15.73
2017-10-16T10:48:30.857Z,11.27
2017-10-16T10:50:59.158Z,10.30
2017-10-16T10:53:27.695Z,12.10
2017-10-16T10:55:56.182Z,12.73
2017-10-16T10:58:24.528Z,12.40
2017-10-16T11:00:53.656Z,12.03
2017-10-16T11:03:21.921Z,10.57
2017-10-16T11:05:50.244Z,14.60
2017-10-16T11:08:18.901Z,13.00
2017-10-16T11:10:47.774Z,10.43
2017-10-16T11:13:16.085Z,13.77
2017-10-16T11:15:44.343Z,10.53
2017-10-16T11:18:14.163Z,15.40
2017-10-16T11:20:42.697Z,12.60
2017-10-16T11:23:11.066Z,15.07
2017-10-16T11:25:39.395Z,14.60
2017-10-16T11:28:07.662Z,16.07
2017-10-16T11:30:35.950Z,14.17
2017-10-16T11:33:05.195Z,13.47
2017-10-16T11:35:33.540Z,14.73
2017-10-16T11:38:01.802Z,14.33
2017-10-16T11:40:30.102Z,16.40
2017-10-16T11:42:58.856Z,16.97
2017-10-16T11:45:27.119Z,17.20
2017-10-16T11:47:55.418Z,12.50
2017-10-16T11:50:23.703Z,13.17
2017-10-16T11:52:52.081Z,16.20
2017-10-16T11:55:20.420Z,14.80
2017-10-16T11:57:48.722Z,17.40
2017-10-16T12:00:17.014Z,13.37
2017-10-16T12:02:45.724Z,14.00
2017-10-16T12:05:13.995Z,13.23
2017-10-16T12:07:42.305Z,14.73
2017-10-16T12:10:11.344Z,14.77
2017-10-16T12:12:39.581Z,12.27
2017-10-16T12:15:07.877Z,18.03
2017-10-16T12:17:36.737Z,15.10
2017-10-16T12:20:05.054Z,14.40
2017-10-16T12:22:33.346Z,17.40
2017-10-16T12:25:01.605Z,15.00
2017-10-16T12:27:29.870Z,15.30
2017-10-16T12:29:58.568Z,12.37
2017-10-16T12:32:26.846Z,15.77
2017-10-16T12:34:55.204Z,14.30
2017-10-16T12:37:23.476Z,14.73
2017-10-16T12:39:51.725Z,15.33
2017-10-16T12:42:20.011Z,14.20
2017-10-16T12:44:48.297Z,12.17
2017-10-16T12:47:16.567Z,19.90
2017-10-16T12:49:44.843Z,14.83
2017-10-16T12:52:13.123Z,12.17
2017-10-16T12:54:43.295Z,22.07
2017-10-16T12:57:11.947Z,17.13
2017-10-16T12:59:40.198Z,12.83
2017-10-16T13:02:08.523Z,12.20
2017-10-16T13:04:36.801Z,13.80
2017-10-16T13:07:05.630Z,12.70
2017-10-16T13:09:33.883Z,16.70
2017-10-16T13:12:02.199Z,15.67
2017-10-16T13:14:30.523Z,19.57
2017-10-16T13:16:59.165Z,13.03
2017-10-16T13:19:27.475Z,12.27
2017-10-16T13:21:55.839Z,12.77
2017-10-16T13:24:24.177Z,14.73
2017-10-16T13:26:52.439Z,13.10
2017-10-16T13:29:20.747Z,15.20
2017-10-16T13:31:49.054Z,14.83
2017-10-16T13:34:17.348Z,16.53
2017-10-16T13:36:45.649Z,12.10
2017-10-16T13:39:13.991Z,16.33
2017-10-16T13:41:42.307Z,11.70
2017-10-16T13:44:10.832Z,18.23
2017-10-16T13:46:39.209Z,10.67
2017-10-16T13:49:07.470Z,12.27
2017-10-16T13:51:35.728Z,17.80
2017-10-16T13:54:04.271Z,15.13
2017-10-16T13:56:32.545Z,14.63
2017-10-16T13:59:01.308Z,11.57
2017-10-16T14:01:29.604Z,13.70
2017-10-16T14:03:57.901Z,16.03
2017-10-16T14:06:26.163Z,15.60
2017-10-16T14:08:55.112Z,12.83
2017-10-16T14:11:23.575Z,15.47
2017-10-16T14:13:52.665Z,12.50
2017-10-16T14:16:20.974Z,12.27
2017-10-16T14:18:52.318Z,16.57
2017-10-16T14:21:20.571Z,18.60
2017-10-16T14:23:48.837Z,15.20
2017-10-16T14:26:17.119Z,10.60
2017-10-16T14:28:45.411Z,16.90
2017-10-16T14:31:13.662Z,15.10
2017-10-16T14:33:42.190Z,15.87
2017-10-16T14:36:10.656Z,20.80
2017-10-16T14:38:38.925Z,12.33
2017-10-16T14:41:07.204Z,15.83
2017-10-16T14:43:35.688Z,18.20
2017-10-16T14:46:03.945Z,19.60
2017-10-16T14:48:32.481Z,17.47
2017-10-16T14:51:01.647Z,15.90
2017-10-16T14:53:29.963Z,16.80
2017-10-16T14:55:58.258Z,19.60
2017-10-16T14:58:26.746Z,16.50
2017-10-16T15:00:55.031Z,17.13
2017-10-16T15:03:23.303Z,24.60
2017-10-16T15:05:51.570Z,21.60
2017-10-16T15:08:19.844Z,21.07
2017-10-16T15:10:48.554Z,20.57
2017-10-16T15:13:16.812Z,22.80
2017-10-16T15:15:45.082Z,21.53
2017-10-16T15:18:13.730Z,19.30
2017-10-16T15:20:41.985Z,22.87
2017-10-16T15:23:10.282Z,20.67
2017-10-16T15:25:38.546Z,26.73
2017-10-16T15:28:06.866Z,23.53
2017-10-16T15:30:35.558Z,20.07
2017-10-16T15:33:03.818Z,18.83
2017-10-16T15:35:32.522Z,19.83
2017-10-16T15:38:01.015Z,20.80
2017-10-16T15:40:29.277Z,22.40
2017-10-16T15:42:57.614Z,25.50
2017-10-16T15:45:25.901Z,17.97
2017-10-16T15:47:54.242Z,20.67
2017-10-16T15:50:22.544Z,19.50
2017-10-16T15:52:50.799Z,20.97
2017-10-16T15:55:19.082Z,21.67
2017-10-16T15:57:47.433Z,21.40
2017-10-16T16:00:15.717Z,22.07
2017-10-16T16:02:43.994Z,25.13
2017-10-16T16:05:12.269Z,21.60
2017-10-16T16:07:40.532Z,22.73
2017-10-16T16:10:09.690Z,24.63
2017-10-16T16:12:38.013Z,22.20
2017-10-16T16:15:06.314Z,21.03
2017-10-16T16:17:34.982Z,22.60
2017-10-16T16:20:03.616Z,22.50
2017-10-16T16:22:32.008Z,23.37
2017-10-16T16:25:00.680Z,26.27
2017-10-16T16:27:28.928Z,20.77
2017-10-16T16:29:57.311Z,24.50
2017-10-16T16:32:25.595Z,22.90
2017-10-16T16:34:53.902Z,24.40
2017-10-16T16:37:22.543Z,24.60
2017-10-16T16:39:51.037Z,23.07
2017-10-16T16:42:19.383Z,23.10
2017-10-16T16:44:47.634Z,22.50
2017-10-16T16:47:15.957Z,22.80
2017-10-16T16:49:44.193Z,21.23
2017-10-16T16:52:12.473Z,22.40
2017-10-16T16:54:40.741Z,24.53
2017-10-16T16:57:09.000Z,23.43
2017-10-16T16:59:37.295Z,22.63
2017-10-16T17:02:05.564Z,21.23
2017-10-16T17:04:33.825Z,20.67
2017-10-16T17:07:02.587Z,31.13
2017-10-16T17:09:31.249Z,21.70
2017-10-16T17:11:59.535Z,38.03
2017-10-16T17:14:27.909Z,28.60
2017-10-16T17:16:56.199Z,26.30
2017-10-16T17:19:24.458Z,21.83
2017-10-16T17:21:52.794Z,22.80
2017-10-16T17:24:21.641Z,22.47
2017-10-16T17:26:49.910Z,22.27
2017-10-16T17:29:18.189Z,19.90
2017-10-16T17:31:46.653Z,20.53
2017-10-16T17:34:14.979Z,21.90
2017-10-16T17:36:43.258Z,22.37
2017-10-16T17:39:11.575Z,22.70
2017-10-16T17:41:40.340Z,23.37
2017-10-16T17:44:08.837Z,27.30
2017-10-16T17:46:37.258Z,20.97
2017-10-16T17:49:05.583Z,23.43
2017-10-16T17:51:33.870Z,23.60
2017-10-16T17:54:02.208Z,23.40
2017-10-16T17:56:30.521Z,20.90
2017-10-16T17:58:58.931Z,27.73
2017-10-16T18:01:36.123Z,18.50
2017-10-16T18:04:04.421Z,19.23
2017-10-16T18:06:33.090Z,23.63
2017-10-16T18:09:01.484Z,25.93
2017-10-16T18:11:31.073Z,19.93
2017-10-16T18:14:00.030Z,19.50
2017-10-16T18:16:28.356Z,23.17
2017-10-16T18:18:57.141Z,21.43
2017-10-16T18:21:25.698Z,24.97
2017-10-16T18:23:53.977Z,23.07
2017-10-16T18:26:22.257Z,21.73
2017-10-16T18:28:50.545Z,23.03
2017-10-16T18:31:19.300Z,24.33
2017-10-16T18:33:47.549Z,32.83
2017-10-16T18:36:15.978Z,24.80
2017-10-16T18:38:44.251Z,29.60
2017-10-16T18:41:12.498Z,27.80
2017-10-16T18:43:40.749Z,28.37
2017-10-16T18:46:09.010Z,35.20
2017-10-16T18:48:38.204Z,31.10
2017-10-16T18:51:07.712Z,32.43
2017-10-16T18:53:36.378Z,32.10
2017-10-16T18:56:04.683Z,30.90
2017-10-16T18:58:32.958Z,29.73
2017-10-16T19:01:01.641Z,32.77
2017-10-16T19:03:30.296Z,27.87
2017-10-16T19:05:58.891Z,26.63
2017-10-16T19:08:27.151Z,30.23
2017-10-16T19:10:55.426Z,30.73
2017-10-16T19:13:23.672Z,28.87
2017-10-16T19:15:52.009Z,29.50
2017-10-16T19:18:20.250Z,27.00
2017-10-16T19:20:48.545Z,27.33
2017-10-16T19:23:16.828Z,32.60
2017-10-16T19:25:45.185Z,31.87
2017-10-16T19:28:13.428Z,26.00
2017-10-16T19:30:41.949Z,27.90
2017-10-16T19:33:10.205Z,26.07
2017-10-16T19:35:38.470Z,25.53
2017-10-16T19:38:06.750Z,28.80
2017-10-16T19:40:35.023Z,27.33
2017-10-16T19:43:03.301Z,25.50
2017-10-16T19:45:32.024Z,23.00
2017-10-16T19:48:00.271Z,27.90
2017-10-16T19:50:28.544Z,30.90
2017-10-16T19:52:56.822Z,29.73
2017-10-16T19:55:25.162Z,30.87
2017-10-16T19:57:53.818Z,27.03
2017-10-16T20:00:22.076Z,31.80
2017-10-16T20:02:50.626Z,28.90
2017-10-16T20:05:19.737Z,30.37
2017-10-16T20:07:48.431Z,27.17
2017-10-16T20:10:17.154Z,25.07
2017-10-16T20:12:45.918Z,24.97
2017-10-16T20:15:14.619Z,29.77
2017-10-16T20:17:43.751Z,26.87
2017-10-16T20:20:12.468Z,29.37
2017-10-16T20:22:41.552Z,29.87
2017-10-16T20:25:10.264Z,33.80
2017-10-16T20:27:38.972Z,31.43
2017-10-16T20:30:07.552Z,28.20
2017-10-16T20:32:36.092Z,32.83
2017-10-16T20:35:04.437Z,28.40
2017-10-16T20:37:32.797Z,30.83
2017-10-16T20:40:01.175Z,30.27
2017-10-16T20:42:29.527Z,28.50
2017-10-16T20:44:58.176Z,30.90
2017-10-16T20:47:26.812Z,30.00
2017-10-16T20:49:55.142Z,31.43
2017-10-16T20:52:23.470Z,30.83
2017-10-16T20:57:26.678Z,29.23
2017-10-16T20:59:55.010Z,32.07
2017-10-16T21:02:23.339Z,29.00
2017-10-16T21:04:51.650Z,26.20
2017-10-16T21:07:19.959Z,29.97
2017-10-16T21:09:48.301Z,29.40
2017-10-16T21:12:16.611Z,25.20
2017-10-16T21:14:45.345Z,28.33
2017-10-16T21:17:14.013Z,26.20
2017-10-16T21:19:42.336Z,26.70
2017-10-16T21:22:10.827Z,30.50
2017-10-16T21:24:39.184Z,26.60
2017-10-16T21:27:07.719Z,28.00
2017-10-16T21:29:36.091Z,30.50
2017-10-16T21:32:04.604Z,33.20
2017-10-16T21:34:32.981Z,29.50
2017-10-16T21:37:01.420Z,34.00
2017-10-16T21:39:29.747Z,26.93
2017-10-16T21:41:58.252Z,27.53
2017-10-16T21:44:26.560Z,29.73
2017-10-16T21:46:54.890Z,29.93
2017-10-16T21:49:23.221Z,33.37
2017-10-16T21:51:51.977Z,29.40
2017-10-16T21:54:20.330Z,28.53
2017-10-16T21:56:48.634Z,29.83
2017-10-16T21:59:17.023Z,30.10
2017-10-16T22:01:46.002Z,29.83
2017-10-16T22:04:14.602Z,35.37
2017-10-16T22:06:42.910Z,28.67
2017-10-16T22:09:11.736Z,26.93
2017-10-16T22:11:40.243Z,22.17
2017-10-16T22:14:08.547Z,25.97
2017-10-16T22:16:37.266Z,22.60
2017-10-16T22:19:05.581Z,23.67
2017-10-16T22:21:33.923Z,30.57
2017-10-16T22:24:02.373Z,22.37
2017-10-16T22:26:30.719Z,26.50
2017-10-16T22:28:59.045Z,27.63
2017-10-16T22:31:27.428Z,26.63
2017-10-16T22:33:55.992Z,25.60
2017-10-16T22:36:24.300Z,26.10
2017-10-16T22:38:52.630Z,24.37
2017-10-16T22:41:20.966Z,25.60
2017-10-16T22:43:49.281Z,26.40
2017-10-16T22:46:18.051Z,26.40
2017-10-16T22:48:48.724Z,24.50
2017-10-16T22:51:17.095Z,25.83
2017-10-16T22:53:46.095Z,26.17
2017-10-16T22:56:14.400Z,21.63
2017-10-16T22:58:42.769Z,26.97
2017-10-16T23:01:11.105Z,24.90
2017-10-16T23:03:39.809Z,24.80
2017-10-16T23:06:08.583Z,21.60
2017-10-16T23:08:37.296Z,24.20
2017-10-16T23:11:05.616Z,28.40
2017-10-16T23:13:34.110Z,25.87
2017-10-16T23:16:02.377Z,24.67
2017-10-16T23:18:30.658Z,24.60
2017-10-16T23:20:59.925Z,28.53
2017-10-16T23:23:28.204Z,22.47
2017-10-16T23:25:56.471Z,23.07
2017-10-16T23:28:25.133Z,24.70
2017-10-16T23:30:53.425Z,24.03
2017-10-16T23:33:22.395Z,24.60
2017-10-16T23:35:50.645Z,21.30
2017-10-16T23:38:18.893Z,26.50
2017-10-16T23:40:47.174Z,25.80
2017-10-16T23:43:15.476Z,26.43
2017-10-16T23:45:43.732Z,23.70
2017-10-16T23:48:12.037Z,29.60
2017-10-16T23:50:40.441Z,22.37
2017-10-16T23:53:09.018Z,29.80
2017-10-16T23:55:37.347Z,25.73
2017-10-16T23:58:05.593Z,30.37
